sensor_id;sensor_type;location;lat;lon;timestamp;pressure;altitude;pressure_sealevel;temperature;humidity
7182;BME280;3632;42.724;23.298;2022-08-04T00:00:02;95524.69;;;21.20;80.75
7182;BME280;3632;42.724;23.298;2022-08-04T00:02:42;95523.50;;;21.08;80.05
7182;BME280;3632;42.724;23.298;2022-08-04T00:05:22;95524.78;;;21.12;80.20
7182;BME280;3632;42.724;23.298;2022-08-04T00:07:59;95525.25;;;20.93;79.94
7182;BME280;3632;42.724;23.298;2022-08-04T00:10:28;95524.63;;;20.91;79.81
7182;BME280;3632;42.724;23.298;2022-08-04T00:12:58;95524.09;;;20.95;79.68
7182;BME280;3632;42.724;23.298;2022-08-04T00:15:25;95522.13;;;20.83;79.55
7182;BME280;3632;42.724;23.298;2022-08-04T00:17:59;95519.00;;;20.87;80.00
7182;BME280;3632;42.724;23.298;2022-08-04T00:20:29;95525.88;;;20.95;79.84
7182;BME280;3632;42.724;23.298;2022-08-04T00:22:56;95512.22;;;20.86;80.11
7182;BME280;3632;42.724;23.298;2022-08-04T00:25:25;95521.69;;;20.94;80.00
7182;BME280;3632;42.724;23.298;2022-08-04T00:27:52;95526.94;;;21.01;79.91
7182;BME280;3632;42.724;23.298;2022-08-04T00:30:20;95530.19;;;21.03;79.76
7182;BME280;3632;42.724;23.298;2022-08-04T00:32:47;95529.28;;;21.10;79.32
7182;BME280;3632;42.724;23.298;2022-08-04T00:35:16;95526.25;;;21.07;79.62
7182;BME280;3632;42.724;23.298;2022-08-04T00:37:44;95532.13;;;21.01;79.84
7182;BME280;3632;42.724;23.298;2022-08-04T00:40:24;95519.44;;;20.91;80.37
7182;BME280;3632;42.724;23.298;2022-08-04T00:43:04;95527.75;;;20.86;80.94
7182;BME280;3632;42.724;23.298;2022-08-04T00:45:46;95535.69;;;20.85;80.93
7182;BME280;3632;42.724;23.298;2022-08-04T00:48:28;95529.53;;;20.86;80.74
7182;BME280;3632;42.724;23.298;2022-08-04T00:51:19;95532.13;;;20.86;80.60
7182;BME280;3632;42.724;23.298;2022-08-04T00:53:57;95530.22;;;20.80;81.01
7182;BME280;3632;42.724;23.298;2022-08-04T00:57:09;95535.53;;;20.86;80.81
7182;BME280;3632;42.724;23.298;2022-08-04T00:59:54;95529.91;;;20.83;80.73
7182;BME280;3632;42.724;23.298;2022-08-04T01:02:30;95519.56;;;20.60;80.24
7182;BME280;3632;42.724;23.298;2022-08-04T01:05:04;95536.81;;;20.68;80.88
7182;BME280;3632;42.724;23.298;2022-08-04T01:08:03;95534.75;;;20.63;81.28
7182;BME280;3632;42.724;23.298;2022-08-04T01:10:44;95545.47;;;20.60;81.42
7182;BME280;3632;42.724;23.298;2022-08-04T01:13:34;95536.44;;;20.56;81.38
7182;BME280;3632;42.724;23.298;2022-08-04T01:16:05;95547.97;;;20.54;81.54
7182;BME280;3632;42.724;23.298;2022-08-04T01:18:35;95554.47;;;20.49;81.61
7182;BME280;3632;42.724;23.298;2022-08-04T01:21:30;95550.13;;;20.42;81.79
7182;BME280;3632;42.724;23.298;2022-08-04T01:24:27;95557.47;;;20.38;81.95
7182;BME280;3632;42.724;23.298;2022-08-04T01:27:00;95560.41;;;20.35;82.00
7182;BME280;3632;42.724;23.298;2022-08-04T01:29:33;95554.88;;;20.38;81.38
7182;BME280;3632;42.724;23.298;2022-08-04T01:32:03;95551.66;;;20.36;81.39
7182;BME280;3632;42.724;23.298;2022-08-04T01:34:34;95548.13;;;20.29;81.56
7182;BME280;3632;42.724;23.298;2022-08-04T01:37:07;95550.75;;;20.21;82.13
7182;BME280;3632;42.724;23.298;2022-08-04T01:39:42;95553.97;;;20.31;81.70
7182;BME280;3632;42.724;23.298;2022-08-04T01:42:10;95543.53;;;20.39;81.15
7182;BME280;3632;42.724;23.298;2022-08-04T01:44:40;95522.69;;;20.33;80.82
7182;BME280;3632;42.724;23.298;2022-08-04T01:47:08;95535.34;;;20.50;80.25
7182;BME280;3632;42.724;23.298;2022-08-04T01:49:36;95542.94;;;20.52;78.75
7182;BME280;3632;42.724;23.298;2022-08-04T01:52:05;95540.38;;;20.52;78.17
7182;BME280;3632;42.724;23.298;2022-08-04T01:54:37;95545.59;;;20.44;77.28
7182;BME280;3632;42.724;23.298;2022-08-04T01:57:05;95547.97;;;20.31;77.68
7182;BME280;3632;42.724;23.298;2022-08-04T01:59:33;95551.38;;;20.31;77.74
7182;BME280;3632;42.724;23.298;2022-08-04T02:02:03;95542.97;;;20.29;77.79
7182;BME280;3632;42.724;23.298;2022-08-04T02:04:30;95554.28;;;20.28;78.09
7182;BME280;3632;42.724;23.298;2022-08-04T02:07:05;95534.53;;;20.27;78.06
7182;BME280;3632;42.724;23.298;2022-08-04T02:09:40;95536.09;;;20.14;78.85
7182;BME280;3632;42.724;23.298;2022-08-04T02:12:18;95539.19;;;20.09;79.51
7182;BME280;3632;42.724;23.298;2022-08-04T02:14:51;95537.56;;;20.08;79.09
7182;BME280;3632;42.724;23.298;2022-08-04T02:17:27;95536.94;;;20.06;79.71
7182;BME280;3632;42.724;23.298;2022-08-04T02:20:05;95529.66;;;20.10;79.34
7182;BME280;3632;42.724;23.298;2022-08-04T02:22:34;95535.44;;;20.12;79.37
7182;BME280;3632;42.724;23.298;2022-08-04T02:25:07;95549.09;;;20.05;79.36
7182;BME280;3632;42.724;23.298;2022-08-04T02:27:54;95544.28;;;19.94;80.12
7182;BME280;3632;42.724;23.298;2022-08-04T02:30:25;95566.63;;;19.87;80.51
7182;BME280;3632;42.724;23.298;2022-08-04T02:33:00;95537.25;;;19.80;81.01
7182;BME280;3632;42.724;23.298;2022-08-04T02:35:28;95543.06;;;19.82;80.79
7182;BME280;3632;42.724;23.298;2022-08-04T02:38:05;95545.19;;;19.79;80.96
7182;BME280;3632;42.724;23.298;2022-08-04T02:40:38;95542.94;;;19.76;80.68
7182;BME280;3632;42.724;23.298;2022-08-04T02:43:07;95543.91;;;19.75;80.79
7182;BME280;3632;42.724;23.298;2022-08-04T02:45:35;95550.66;;;19.84;80.36
7182;BME280;3632;42.724;23.298;2022-08-04T02:48:04;95524.69;;;19.77;79.92
7182;BME280;3632;42.724;23.298;2022-08-04T02:50:34;95547.16;;;19.77;79.66
7182;BME280;3632;42.724;23.298;2022-08-04T02:53:03;95543.00;;;19.68;80.04
7182;BME280;3632;42.724;23.298;2022-08-04T02:55:32;95544.75;;;19.67;80.05
7182;BME280;3632;42.724;23.298;2022-08-04T02:58:01;95545.22;;;19.71;80.08
7182;BME280;3632;42.724;23.298;2022-08-04T03:00:29;95541.22;;;19.68;79.94
7182;BME280;3632;42.724;23.298;2022-08-04T03:03:04;95546.16;;;19.78;80.16
7182;BME280;3632;42.724;23.298;2022-08-04T03:05:52;95552.94;;;19.79;79.93
7182;BME280;3632;42.724;23.298;2022-08-04T03:08:41;95557.19;;;19.72;80.25
7182;BME280;3632;42.724;23.298;2022-08-04T03:11:42;95548.16;;;19.68;80.84
7182;BME280;3632;42.724;23.298;2022-08-04T03:14:37;95552.47;;;19.75;80.23
7182;BME280;3632;42.724;23.298;2022-08-04T03:17:24;95552.81;;;19.72;80.15
7182;BME280;3632;42.724;23.298;2022-08-04T03:20:21;95560.09;;;19.77;80.21
7182;BME280;3632;42.724;23.298;2022-08-04T03:23:07;95552.94;;;19.79;79.83
7182;BME280;3632;42.724;23.298;2022-08-04T03:26:24;95551.63;;;19.83;78.66
7182;BME280;3632;42.724;23.298;2022-08-04T03:29:22;95556.19;;;19.81;78.39
7182;BME280;3632;42.724;23.298;2022-08-04T03:32:27;95555.53;;;19.79;78.25
7182;BME280;3632;42.724;23.298;2022-08-04T03:35:27;95555.91;;;19.68;78.35
7182;BME280;3632;42.724;23.298;2022-08-04T03:38:25;95552.03;;;19.72;78.05
7182;BME280;3632;42.724;23.298;2022-08-04T03:41:21;95548.31;;;19.66;77.65
7182;BME280;3632;42.724;23.298;2022-08-04T03:44:23;95512.75;;;19.29;78.16
7182;BME280;3632;42.724;23.298;2022-08-04T03:47:16;95548.50;;;19.56;78.41
7182;BME280;3632;42.724;23.298;2022-08-04T03:53:13;95536.13;;;19.36;79.47
7182;BME280;3632;42.724;23.298;2022-08-04T03:55:54;95382.41;;;18.38;79.41
7182;BME280;3632;42.724;23.298;2022-08-04T03:59:01;95541.75;;;19.39;80.17
7182;BME280;3632;42.724;23.298;2022-08-04T04:01:43;95547.13;;;19.38;80.55
7182;BME280;3632;42.724;23.298;2022-08-04T04:04:41;95548.28;;;19.43;80.42
7182;BME280;3632;42.724;23.298;2022-08-04T04:07:50;95551.78;;;19.50;80.21
7182;BME280;3632;42.724;23.298;2022-08-04T04:10:39;95560.63;;;19.64;80.04
7182;BME280;3632;42.724;23.298;2022-08-04T04:13:25;95563.50;;;19.69;80.09
7182;BME280;3632;42.724;23.298;2022-08-04T04:16:08;95485.78;;;19.24;79.75
7182;BME280;3632;42.724;23.298;2022-08-04T04:18:51;95561.44;;;19.65;79.89
7182;BME280;3632;42.724;23.298;2022-08-04T04:21:28;95560.00;;;19.54;79.86
7182;BME280;3632;42.724;23.298;2022-08-04T04:24:12;95563.88;;;19.58;80.34
7182;BME280;3632;42.724;23.298;2022-08-04T04:26:54;95570.28;;;19.70;80.22
7182;BME280;3632;42.724;23.298;2022-08-04T04:29:35;95450.34;;;19.01;79.57
7182;BME280;3632;42.724;23.298;2022-08-04T04:32:20;95559.69;;;19.88;79.36
7182;BME280;3632;42.724;23.298;2022-08-04T04:34:55;95583.75;;;19.96;79.23
7182;BME280;3632;42.724;23.298;2022-08-04T04:37:55;95558.78;;;20.03;78.68
7182;BME280;3632;42.724;23.298;2022-08-04T04:40:31;95423.19;;;19.13;77.86
7182;BME280;3632;42.724;23.298;2022-08-04T04:43:15;95562.19;;;20.04;78.24
7182;BME280;3632;42.724;23.298;2022-08-04T04:45:54;95568.75;;;20.15;77.78
7182;BME280;3632;42.724;23.298;2022-08-04T04:48:30;95567.25;;;20.20;77.71
7182;BME280;3632;42.724;23.298;2022-08-04T04:51:07;95559.28;;;19.99;77.62
7182;BME280;3632;42.724;23.298;2022-08-04T04:53:45;95570.84;;;20.19;77.68
7182;BME280;3632;42.724;23.298;2022-08-04T04:56:21;95570.31;;;20.24;77.79
7182;BME280;3632;42.724;23.298;2022-08-04T04:58:52;95570.91;;;20.03;78.73
7182;BME280;3632;42.724;23.298;2022-08-04T05:04:39;95574.16;;;20.05;79.09
7182;BME280;3632;42.724;23.298;2022-08-04T05:10:27;95574.09;;;20.13;79.21
7182;BME280;3632;42.724;23.298;2022-08-04T05:13:16;95572.78;;;20.17;79.29
7182;BME280;3632;42.724;23.298;2022-08-04T05:15:51;95574.41;;;20.18;79.06
7182;BME280;3632;42.724;23.298;2022-08-04T05:18:23;95573.69;;;20.24;79.35
7182;BME280;3632;42.724;23.298;2022-08-04T05:20:54;95578.69;;;20.34;79.44
7182;BME280;3632;42.724;23.298;2022-08-04T05:23:25;95582.03;;;20.42;78.72
7182;BME280;3632;42.724;23.298;2022-08-04T05:25:57;95576.78;;;20.50;78.79
7182;BME280;3632;42.724;23.298;2022-08-04T05:28:28;95569.94;;;20.58;78.44
7182;BME280;3632;42.724;23.298;2022-08-04T05:31:02;95588.00;;;20.66;78.33
7182;BME280;3632;42.724;23.298;2022-08-04T05:33:33;95581.44;;;20.78;78.43
7182;BME280;3632;42.724;23.298;2022-08-04T05:36:09;95428.56;;;19.88;77.53
7182;BME280;3632;42.724;23.298;2022-08-04T05:38:38;95577.50;;;20.82;77.37
7182;BME280;3632;42.724;23.298;2022-08-04T05:41:07;95573.13;;;20.82;77.22
7182;BME280;3632;42.724;23.298;2022-08-04T05:43:35;95576.25;;;20.78;77.82
7182;BME280;3632;42.724;23.298;2022-08-04T05:46:04;95582.34;;;20.85;78.06
7182;BME280;3632;42.724;23.298;2022-08-04T05:48:31;95583.22;;;20.92;77.55
7182;BME280;3632;42.724;23.298;2022-08-04T05:51:00;95597.28;;;20.97;77.70
7182;BME280;3632;42.724;23.298;2022-08-04T05:53:29;95588.41;;;21.44;77.04
7182;BME280;3632;42.724;23.298;2022-08-04T05:55:57;95586.44;;;21.75;75.55
7182;BME280;3632;42.724;23.298;2022-08-04T05:58:25;95580.91;;;21.93;74.25
7182;BME280;3632;42.724;23.298;2022-08-04T06:00:54;95582.75;;;21.99;73.77
7182;BME280;3632;42.724;23.298;2022-08-04T06:03:22;95579.94;;;22.15;72.97
7182;BME280;3632;42.724;23.298;2022-08-04T06:05:50;95582.19;;;22.18;72.65
7182;BME280;3632;42.724;23.298;2022-08-04T06:08:18;95589.44;;;22.08;72.56
7182;BME280;3632;42.724;23.298;2022-08-04T06:10:47;95584.91;;;22.31;72.25
7182;BME280;3632;42.724;23.298;2022-08-04T06:13:16;95569.19;;;22.18;71.89
7182;BME280;3632;42.724;23.298;2022-08-04T06:15:46;95590.94;;;22.17;72.15
7182;BME280;3632;42.724;23.298;2022-08-04T06:18:16;95594.47;;;22.10;72.27
7182;BME280;3632;42.724;23.298;2022-08-04T06:20:46;95592.41;;;22.05;72.55
7182;BME280;3632;42.724;23.298;2022-08-04T06:23:18;95593.41;;;22.04;73.05
7182;BME280;3632;42.724;23.298;2022-08-04T06:25:49;95589.19;;;21.88;73.17
7182;BME280;3632;42.724;23.298;2022-08-04T06:28:17;95593.41;;;21.90;74.40
7182;BME280;3632;42.724;23.298;2022-08-04T06:30:46;95594.47;;;21.95;74.00
7182;BME280;3632;42.724;23.298;2022-08-04T06:33:15;95583.00;;;22.04;74.75
7182;BME280;3632;42.724;23.298;2022-08-04T06:35:54;95582.75;;;21.99;75.24
7182;BME280;3632;42.724;23.298;2022-08-04T06:38:22;95572.66;;;21.90;74.93
7182;BME280;3632;42.724;23.298;2022-08-04T06:40:49;95590.06;;;22.10;74.82
7182;BME280;3632;42.724;23.298;2022-08-04T06:43:17;95591.22;;;22.08;75.48
7182;BME280;3632;42.724;23.298;2022-08-04T06:45:45;95594.72;;;22.15;75.54
7182;BME280;3632;42.724;23.298;2022-08-04T06:48:15;95589.28;;;22.31;75.22
7182;BME280;3632;42.724;23.298;2022-08-04T06:50:43;95538.16;;;22.10;74.66
7182;BME280;3632;42.724;23.298;2022-08-04T06:53:14;95579.09;;;22.51;73.22
7182;BME280;3632;42.724;23.298;2022-08-04T06:55:42;95579.16;;;22.57;73.28
7182;BME280;3632;42.724;23.298;2022-08-04T06:58:10;95580.19;;;22.63;72.45
7182;BME280;3632;42.724;23.298;2022-08-04T07:00:39;95576.69;;;22.70;72.28
7182;BME280;3632;42.724;23.298;2022-08-04T07:03:07;95583.56;;;22.78;72.05
7182;BME280;3632;42.724;23.298;2022-08-04T07:05:34;95580.22;;;22.84;71.74
7182;BME280;3632;42.724;23.298;2022-08-04T07:08:01;95578.91;;;22.95;71.61
7182;BME280;3632;42.724;23.298;2022-08-04T07:10:30;95581.41;;;23.09;71.26
7182;BME280;3632;42.724;23.298;2022-08-04T07:12:58;95586.28;;;23.26;70.68
7182;BME280;3632;42.724;23.298;2022-08-04T07:15:26;95582.78;;;23.40;69.99
7182;BME280;3632;42.724;23.298;2022-08-04T07:17:54;95577.47;;;23.48;69.80
7182;BME280;3632;42.724;23.298;2022-08-04T07:20:24;95550.66;;;23.19;69.51
7182;BME280;3632;42.724;23.298;2022-08-04T07:22:52;95574.06;;;23.47;69.75
7182;BME280;3632;42.724;23.298;2022-08-04T07:25:19;95584.13;;;23.57;69.47
7182;BME280;3632;42.724;23.298;2022-08-04T07:27:48;95568.56;;;23.70;69.61
7182;BME280;3632;42.724;23.298;2022-08-04T07:30:16;95558.97;;;23.77;69.75
7182;BME280;3632;42.724;23.298;2022-08-04T07:32:43;95570.66;;;23.94;69.80
7182;BME280;3632;42.724;23.298;2022-08-04T07:35:12;95519.81;;;23.92;69.13
7182;BME280;3632;42.724;23.298;2022-08-04T07:37:39;95552.72;;;24.19;67.98
7182;BME280;3632;42.724;23.298;2022-08-04T07:40:07;95563.78;;;24.28;66.92
7182;BME280;3632;42.724;23.298;2022-08-04T07:42:33;95556.59;;;24.43;67.88
7182;BME280;3632;42.724;23.298;2022-08-04T07:45:02;95554.78;;;24.37;67.59
7182;BME280;3632;42.724;23.298;2022-08-04T07:47:29;95554.59;;;24.51;67.43
7182;BME280;3632;42.724;23.298;2022-08-04T07:49:56;95557.41;;;24.63;66.61
7182;BME280;3632;42.724;23.298;2022-08-04T07:52:24;95559.63;;;24.73;66.59
7182;BME280;3632;42.724;23.298;2022-08-04T07:54:52;95564.84;;;24.79;66.20
7182;BME280;3632;42.724;23.298;2022-08-04T07:57:19;95563.66;;;24.69;65.85
7182;BME280;3632;42.724;23.298;2022-08-04T07:59:46;95563.84;;;24.61;65.91
7182;BME280;3632;42.724;23.298;2022-08-04T08:02:14;95567.63;;;24.58;65.30
7182;BME280;3632;42.724;23.298;2022-08-04T08:04:42;95556.81;;;24.54;64.96
7182;BME280;3632;42.724;23.298;2022-08-04T08:07:09;95548.81;;;24.69;64.92
7182;BME280;3632;42.724;23.298;2022-08-04T08:09:37;95552.00;;;24.84;65.46
7182;BME280;3632;42.724;23.298;2022-08-04T08:12:06;95552.81;;;25.05;64.40
7182;BME280;3632;42.724;23.298;2022-08-04T08:14:34;95558.44;;;25.15;63.09
7182;BME280;3632;42.724;23.298;2022-08-04T08:17:01;95529.56;;;24.96;62.75
7182;BME280;3632;42.724;23.298;2022-08-04T08:19:30;95556.41;;;25.17;62.68
7182;BME280;3632;42.724;23.298;2022-08-04T08:21:58;95550.19;;;25.18;62.05
7182;BME280;3632;42.724;23.298;2022-08-04T08:24:25;95554.63;;;25.11;63.19
7182;BME280;3632;42.724;23.298;2022-08-04T08:26:52;95560.03;;;25.22;62.91
7182;BME280;3632;42.724;23.298;2022-08-04T08:29:20;95556.19;;;25.31;62.22
7182;BME280;3632;42.724;23.298;2022-08-04T08:31:47;95562.19;;;25.38;62.16
7182;BME280;3632;42.724;23.298;2022-08-04T08:34:14;95554.34;;;25.58;62.25
7182;BME280;3632;42.724;23.298;2022-08-04T08:36:44;95565.72;;;25.77;62.31
7182;BME280;3632;42.724;23.298;2022-08-04T08:39:15;95558.06;;;25.88;61.71
7182;BME280;3632;42.724;23.298;2022-08-04T08:42:14;95552.75;;;26.02;61.12
7182;BME280;3632;42.724;23.298;2022-08-04T08:45:16;95553.06;;;26.18;60.85
7182;BME280;3632;42.724;23.298;2022-08-04T08:48:10;95552.22;;;26.31;61.16
7182;BME280;3632;42.724;23.298;2022-08-04T08:50:56;95549.38;;;26.39;60.84
7182;BME280;3632;42.724;23.298;2022-08-04T08:53:43;95553.66;;;26.58;60.03
7182;BME280;3632;42.724;23.298;2022-08-04T08:56:24;95550.09;;;26.77;58.65
7182;BME280;3632;42.724;23.298;2022-08-04T08:59:07;95546.59;;;26.90;58.92
7182;BME280;3632;42.724;23.298;2022-08-04T09:01:57;95544.00;;;27.08;59.03
7182;BME280;3632;42.724;23.298;2022-08-04T09:04:41;95542.50;;;27.19;56.09
7182;BME280;3632;42.724;23.298;2022-08-04T09:07:38;95541.06;;;27.23;56.13
7182;BME280;3632;42.724;23.298;2022-08-04T09:10:16;95519.97;;;27.18;56.26
7182;BME280;3632;42.724;23.298;2022-08-04T09:12:50;95541.13;;;27.35;56.15
7182;BME280;3632;42.724;23.298;2022-08-04T09:15:26;95537.16;;;27.50;55.83
7182;BME280;3632;42.724;23.298;2022-08-04T09:18:01;95527.66;;;27.56;54.33
7182;BME280;3632;42.724;23.298;2022-08-04T09:20:34;95524.38;;;27.60;54.96
7182;BME280;3632;42.724;23.298;2022-08-04T09:23:08;95531.56;;;27.65;53.25
7182;BME280;3632;42.724;23.298;2022-08-04T09:25:43;95524.22;;;27.74;52.25
7182;BME280;3632;42.724;23.298;2022-08-04T09:28:18;95521.56;;;27.92;51.83
7182;BME280;3632;42.724;23.298;2022-08-04T09:30:53;95524.50;;;28.13;51.17
7182;BME280;3632;42.724;23.298;2022-08-04T09:33:27;95517.59;;;28.19;50.29
7182;BME280;3632;42.724;23.298;2022-08-04T09:35:59;95522.69;;;28.14;49.92
7182;BME280;3632;42.724;23.298;2022-08-04T09:38:32;95521.34;;;28.11;50.39
7182;BME280;3632;42.724;23.298;2022-08-04T09:41:12;95520.94;;;28.26;50.98
7182;BME280;3632;42.724;23.298;2022-08-04T09:43:48;95517.34;;;28.50;50.77
7182;BME280;3632;42.724;23.298;2022-08-04T09:46:23;95525.25;;;28.74;49.06
7182;BME280;3632;42.724;23.298;2022-08-04T09:48:55;95525.38;;;28.90;49.32
7182;BME280;3632;42.724;23.298;2022-08-04T09:51:35;95524.16;;;28.93;48.01
7182;BME280;3632;42.724;23.298;2022-08-04T09:54:13;95516.84;;;29.07;46.68
7182;BME280;3632;42.724;23.298;2022-08-04T09:56:50;95520.13;;;29.25;45.87
7182;BME280;3632;42.724;23.298;2022-08-04T09:59:24;95514.44;;;29.40;44.27
7182;BME280;3632;42.724;23.298;2022-08-04T10:01:56;95504.94;;;29.50;43.02
7182;BME280;3632;42.724;23.298;2022-08-04T10:04:23;95506.38;;;29.70;43.91
7182;BME280;3632;42.724;23.298;2022-08-04T10:07:08;95501.75;;;29.88;44.22
7182;BME280;3632;42.724;23.298;2022-08-04T10:09:56;95485.19;;;29.88;42.40
7182;BME280;3632;42.724;23.298;2022-08-04T10:12:32;95504.41;;;30.17;42.82
7182;BME280;3632;42.724;23.298;2022-08-04T10:15:09;95493.91;;;30.33;41.13
7182;BME280;3632;42.724;23.298;2022-08-04T10:18:10;95479.91;;;30.45;39.40
7182;BME280;3632;42.724;23.298;2022-08-04T10:21:03;95488.78;;;30.72;39.50
7182;BME280;3632;42.724;23.298;2022-08-04T10:23:41;95488.44;;;31.02;39.01
7182;BME280;3632;42.724;23.298;2022-08-04T10:26:24;95482.28;;;31.13;37.41
7182;BME280;3632;42.724;23.298;2022-08-04T10:28:59;95491.47;;;31.32;36.19
7182;BME280;3632;42.724;23.298;2022-08-04T10:31:31;95486.94;;;31.49;35.02
7182;BME280;3632;42.724;23.298;2022-08-04T10:34:03;95478.09;;;31.55;33.91
7182;BME280;3632;42.724;23.298;2022-08-04T10:36:43;95469.41;;;31.55;33.78
7182;BME280;3632;42.724;23.298;2022-08-04T10:39:13;95480.16;;;31.75;32.90
7182;BME280;3632;42.724;23.298;2022-08-04T10:41:49;95476.00;;;31.57;32.91
7182;BME280;3632;42.724;23.298;2022-08-04T10:44:29;95472.81;;;31.77;33.04
7182;BME280;3632;42.724;23.298;2022-08-04T10:47:00;95473.69;;;31.83;33.77
7182;BME280;3632;42.724;23.298;2022-08-04T10:49:34;95435.16;;;31.55;34.48
7182;BME280;3632;42.724;23.298;2022-08-04T10:52:06;95476.56;;;31.81;34.98
7182;BME280;3632;42.724;23.298;2022-08-04T10:54:40;95446.69;;;31.76;34.77
7182;BME280;3632;42.724;23.298;2022-08-04T10:57:14;95466.59;;;32.10;34.00
7182;BME280;3632;42.724;23.298;2022-08-04T10:59:52;95468.91;;;32.33;33.08
7182;BME280;3632;42.724;23.298;2022-08-04T11:02:29;95471.69;;;32.48;33.83
7182;BME280;3632;42.724;23.298;2022-08-04T11:05:08;95466.16;;;32.55;32.95
7182;BME280;3632;42.724;23.298;2022-08-04T11:07:38;95464.56;;;32.49;30.93
7182;BME280;3632;42.724;23.298;2022-08-04T11:10:07;95466.09;;;32.45;28.85
7182;BME280;3632;42.724;23.298;2022-08-04T11:12:37;95460.13;;;32.59;29.31
7182;BME280;3632;42.724;23.298;2022-08-04T11:15:10;95460.94;;;32.60;29.20
7182;BME280;3632;42.724;23.298;2022-08-04T11:17:40;95453.50;;;32.89;29.49
7182;BME280;3632;42.724;23.298;2022-08-04T11:20:14;95462.22;;;32.84;29.46
7182;BME280;3632;42.724;23.298;2022-08-04T11:22:47;95451.34;;;32.49;28.50
7182;BME280;3632;42.724;23.298;2022-08-04T11:25:18;95448.59;;;32.34;28.49
7182;BME280;3632;42.724;23.298;2022-08-04T11:27:53;95447.50;;;32.30;28.17
7182;BME280;3632;42.724;23.298;2022-08-04T11:30:30;95437.72;;;31.98;29.33
7182;BME280;3632;42.724;23.298;2022-08-04T11:33:05;95435.94;;;32.36;29.90
7182;BME280;3632;42.724;23.298;2022-08-04T11:35:41;95435.81;;;32.84;29.67
7182;BME280;3632;42.724;23.298;2022-08-04T11:38:14;95439.69;;;33.14;29.25
7182;BME280;3632;42.724;23.298;2022-08-04T11:40:49;95438.38;;;33.16;30.81
7182;BME280;3632;42.724;23.298;2022-08-04T11:43:22;95447.44;;;32.88;31.94
7182;BME280;3632;42.724;23.298;2022-08-04T11:45:55;95435.00;;;32.52;32.08
7182;BME280;3632;42.724;23.298;2022-08-04T11:48:31;95434.81;;;32.27;32.24
7182;BME280;3632;42.724;23.298;2022-08-04T11:51:01;95440.94;;;32.05;32.81
7182;BME280;3632;42.724;23.298;2022-08-04T11:53:30;95442.47;;;32.01;33.20
7182;BME280;3632;42.724;23.298;2022-08-04T11:56:01;95372.25;;;31.63;33.25
7182;BME280;3632;42.724;23.298;2022-08-04T11:58:28;95426.88;;;31.95;33.64
7182;BME280;3632;42.724;23.298;2022-08-04T12:01:04;95417.97;;;31.74;34.18
7182;BME280;3632;42.724;23.298;2022-08-04T12:03:42;95434.31;;;31.76;33.02
7182;BME280;3632;42.724;23.298;2022-08-04T12:06:16;95440.53;;;31.65;33.80
7182;BME280;3632;42.724;23.298;2022-08-04T12:08:57;95432.50;;;31.55;34.18
7182;BME280;3632;42.724;23.298;2022-08-04T12:11:42;95435.50;;;31.42;34.23
7182;BME280;3632;42.724;23.298;2022-08-04T12:14:20;95440.44;;;31.16;35.21
7182;BME280;3632;42.724;23.298;2022-08-04T12:16:57;95411.31;;;30.84;35.08
7182;BME280;3632;42.724;23.298;2022-08-04T12:19:32;95440.09;;;30.91;35.98
7182;BME280;3632;42.724;23.298;2022-08-04T12:22:03;95440.84;;;30.70;36.56
7182;BME280;3632;42.724;23.298;2022-08-04T12:24:33;95438.78;;;30.55;36.62
7182;BME280;3632;42.724;23.298;2022-08-04T12:27:16;95436.69;;;30.40;37.39
7182;BME280;3632;42.724;23.298;2022-08-04T12:29:45;95427.28;;;30.28;38.11
7182;BME280;3632;42.724;23.298;2022-08-04T12:32:20;95435.78;;;30.18;38.87
7182;BME280;3632;42.724;23.298;2022-08-04T12:34:56;95424.88;;;30.10;39.07
7182;BME280;3632;42.724;23.298;2022-08-04T12:37:31;95420.25;;;30.00;38.44
7182;BME280;3632;42.724;23.298;2022-08-04T12:40:02;95417.97;;;29.92;39.05
7182;BME280;3632;42.724;23.298;2022-08-04T12:42:36;95422.69;;;29.90;39.37
7182;BME280;3632;42.724;23.298;2022-08-04T12:45:06;95423.25;;;29.92;39.49
7182;BME280;3632;42.724;23.298;2022-08-04T12:47:36;95423.91;;;29.99;39.88
7182;BME280;3632;42.724;23.298;2022-08-04T12:50:07;95417.22;;;29.91;38.94
7182;BME280;3632;42.724;23.298;2022-08-04T12:52:41;95423.59;;;30.12;38.95
7182;BME280;3632;42.724;23.298;2022-08-04T12:55:08;95384.38;;;30.61;37.91
7182;BME280;3632;42.724;23.298;2022-08-04T12:57:36;95411.50;;;31.60;37.26
7182;BME280;3632;42.724;23.298;2022-08-04T13:00:05;95409.41;;;32.15;36.42
7182;BME280;3632;42.724;23.298;2022-08-04T13:02:38;95407.22;;;32.71;36.09
7182;BME280;3632;42.724;23.298;2022-08-04T13:05:08;95395.00;;;33.12;35.94
7182;BME280;3632;42.724;23.298;2022-08-04T13:07:39;95400.44;;;33.52;35.39
7182;BME280;3632;42.724;23.298;2022-08-04T13:10:11;95398.69;;;33.78;32.18
7182;BME280;3632;42.724;23.298;2022-08-04T13:12:38;95393.69;;;33.92;31.75
7182;BME280;3632;42.724;23.298;2022-08-04T13:15:10;95394.47;;;34.08;32.26
7182;BME280;3632;42.724;23.298;2022-08-04T13:17:48;95401.13;;;34.35;31.89
7182;BME280;3632;42.724;23.298;2022-08-04T13:20:20;95393.44;;;34.74;32.01
7182;BME280;3632;42.724;23.298;2022-08-04T13:22:49;95394.41;;;35.04;30.65
7182;BME280;3632;42.724;23.298;2022-08-04T13:25:16;95387.53;;;35.03;29.49
7182;BME280;3632;42.724;23.298;2022-08-04T13:27:43;95350.75;;;34.86;30.58
7182;BME280;3632;42.724;23.298;2022-08-04T13:30:16;95381.38;;;35.22;30.13
7182;BME280;3632;42.724;23.298;2022-08-04T13:32:45;95374.88;;;35.49;29.54
7182;BME280;3632;42.724;23.298;2022-08-04T13:35:13;95383.75;;;35.78;29.56
7182;BME280;3632;42.724;23.298;2022-08-04T13:37:41;95372.00;;;35.94;29.32
7182;BME280;3632;42.724;23.298;2022-08-04T13:40:11;95365.97;;;35.84;29.23
7182;BME280;3632;42.724;23.298;2022-08-04T13:42:45;95341.88;;;35.75;28.72
7182;BME280;3632;42.724;23.298;2022-08-04T13:45:14;95363.69;;;36.06;28.20
7182;BME280;3632;42.724;23.298;2022-08-04T13:47:47;95366.81;;;36.08;28.35
7182;BME280;3632;42.724;23.298;2022-08-04T13:50:18;95366.63;;;35.99;28.58
7182;BME280;3632;42.724;23.298;2022-08-04T13:52:50;95356.53;;;36.01;28.04
7182;BME280;3632;42.724;23.298;2022-08-04T13:55:22;95364.69;;;36.10;27.72
7182;BME280;3632;42.724;23.298;2022-08-04T13:57:54;95326.13;;;35.89;29.23
7182;BME280;3632;42.724;23.298;2022-08-04T14:00:23;95356.59;;;35.96;27.03